Weather History for Lexington, NE

Change the Weather History Date:

Wednesday, April 23, 2014

  Actual Average Record
Temperature  
Mean Temperature 68 °F -  
Max Temperature 81 °F 60 °F 89 °F (2009)
Min Temperature 54 °F 36 °F 27 °F (2013)
Cooling Degree Days 2    
Growing Degree Days 18 (Base 50)    
Moisture  
Dew Point 40 °F    
Average Humidity 40    
Maximum Humidity 63    
Minimum Humidity 19    
Precipitation  
Precipitation 0.00 in - - ()
Sea Level Pressure  
Sea Level Pressure 29.61 in    
Wind  
Wind Speed 18 mph (SSE)    
Max Wind Speed 31 mph    
Max Gust Speed 38 mph    
Visibility 10 miles    
Events Rain , Thunderstorm    
Averages and records for this station are not official NWS values.
T = Trace of Precipitation, MM = Missing Value Source: NWS Daily Summary

Daily Weather History Graph

Daily Weather History Graph

Search for Another Location

Airport:

Trip Planner

Search our weather history database for the weather conditions in past years. The results will help you decide how hot, cold, wet, or windy it might be!

Date:

Astronomy

Apr. 23, 2014 Rise Set
Actual Time 6:48 AM CDT 8:27 PM CDT
Civil Twilight 6:19 AM CDT 8:56 PM CDT
Nautical Twilight 5:44 AM CDT 9:31 PM CDT
Astronomical Twilight 5:06 AM CDT 10:09 PM CDT
Moon 3:23 AM CDT (4/23) 2:35 PM CDT (4/23)
Length of Visible Light 14h 36m
Length of Day
13h 38m
Waning Crescent, 34% of the Moon is Illuminated
Apr 23
Waning Crescent
Apr 29
New
May 6
First Quarter
May 14
Full
May 21
Last Quarter

Hourly Weather History & Observations

Time (CDT) Temp. Dew Point Humidity Pressure Visibility Wind Dir Wind Speed Gust Speed Precip Events Conditions
12:15 AM 61.3 °F 32.5 °F 34% 29.78 in 10.0 mi SE 19.6 mph 26.5 mph N/A   Clear
12:35 AM 60.6 °F 33.1 °F 36% 29.77 in 10.0 mi SSE 19.6 mph 25.3 mph N/A   Clear
12:55 AM 59.5 °F 33.8 °F 38% 29.77 in 10.0 mi SSE 19.6 mph 26.5 mph N/A   Clear
1:15 AM 59.0 °F 34.2 °F 39% 29.77 in 10.0 mi SSE 18.4 mph - N/A   Clear
1:35 AM 59.0 °F 34.3 °F 40% 29.77 in 10.0 mi SSE 19.6 mph 26.5 mph N/A   Clear
1:55 AM 57.7 °F 34.7 °F 42% 29.76 in 10.0 mi SSE 18.4 mph 21.9 mph N/A   Clear
2:15 AM 58.1 °F 34.3 °F 41% 29.75 in 10.0 mi SE 16.1 mph 21.9 mph N/A   Clear
2:35 AM 58.1 °F 34.2 °F 41% 29.73 in 10.0 mi SE 16.1 mph 23.0 mph N/A   Clear
2:55 AM 58.1 °F 34.3 °F 41% 29.72 in 10.0 mi SE 16.1 mph 21.9 mph N/A   Clear
3:15 AM 57.6 °F 35.1 °F 43% 29.71 in 10.0 mi SSE 15.0 mph - N/A   Clear
3:35 AM 57.9 °F 35.1 °F 42% 29.70 in 10.0 mi SSE 16.1 mph 21.9 mph N/A   Clear
3:55 AM 59.0 °F 34.3 °F 40% 29.69 in 10.0 mi SSE 23.0 mph 31.1 mph N/A   Clear
4:15 AM 58.1 °F 33.8 °F 40% 29.69 in 10.0 mi SSE 24.2 mph 29.9 mph N/A   Clear
4:35 AM 57.2 °F 33.6 °F 41% 29.69 in 10.0 mi SSE 21.9 mph 27.6 mph N/A   Clear
4:55 AM 56.3 °F 33.3 °F 42% 29.68 in 10.0 mi SSE 24.2 mph 32.2 mph N/A   Clear
5:15 AM 56.3 °F 34.0 °F 43% 29.68 in 10.0 mi SSE 20.7 mph 29.9 mph N/A   Clear
5:35 AM 55.4 °F 34.9 °F 46% 29.67 in 10.0 mi SSE 23.0 mph 29.9 mph N/A   Clear
5:55 AM 54.9 °F 35.6 °F 48% 29.67 in 10.0 mi SSE 23.0 mph 31.1 mph N/A   Clear
6:15 AM 54.9 °F 36.0 °F 49% 29.66 in 10.0 mi SSE 23.0 mph 29.9 mph N/A   Clear
6:35 AM 54.1 °F 36.3 °F 51% 29.66 in 10.0 mi SSE 23.0 mph 28.8 mph N/A   Clear
6:55 AM 54.1 °F 36.5 °F 51% 29.66 in 10.0 mi SSE 21.9 mph 28.8 mph N/A   Clear
7:15 AM 54.0 °F 36.9 °F 52% 29.65 in 10.0 mi SE 19.6 mph 26.5 mph N/A   Clear
7:35 AM 54.0 °F 37.4 °F 54% 29.65 in 10.0 mi SSE 23.0 mph 28.8 mph N/A   Clear
7:55 AM 54.7 °F 38.3 °F 54% 29.64 in 10.0 mi SSE 20.7 mph 31.1 mph N/A   Clear
8:15 AM 56.1 °F 39.4 °F 53% 29.64 in 10.0 mi SSE 21.9 mph 27.6 mph N/A   Clear
8:35 AM 57.6 °F 40.3 °F 53% 29.62 in 10.0 mi SSE 19.6 mph 27.6 mph N/A   Clear
8:55 AM 59.2 °F 41.9 °F 53% 29.62 in 10.0 mi SSE 20.7 mph 28.8 mph N/A   Clear
9:15 AM 60.6 °F 42.8 °F 52% 29.61 in 10.0 mi SSE 24.2 mph 35.7 mph N/A   Clear
9:35 AM 60.1 °F 42.3 °F 52% 29.60 in 10.0 mi SSE 23.0 mph 32.2 mph N/A   Clear
9:55 AM 60.8 °F 42.8 °F 52% 29.60 in 10.0 mi SSE 20.7 mph 32.2 mph N/A   Clear
10:15 AM 62.4 °F 44.4 °F 52% 29.59 in 10.0 mi South 31.1 mph 38.0 mph N/A   Clear
10:35 AM 63.3 °F 45.0 °F 51% 29.58 in 10.0 mi SSE 24.2 mph 38.0 mph N/A   Clear
10:55 AM 63.5 °F 45.7 °F 52% 29.59 in 10.0 mi SSE 18.4 mph 25.3 mph N/A   Clear
11:15 AM 66.0 °F 47.3 °F 51% 29.60 in 10.0 mi South 12.7 mph 23.0 mph N/A   Clear
11:35 AM 69.1 °F 48.7 °F 48% 29.59 in 10.0 mi South 17.3 mph 25.3 mph N/A   Clear
11:55 AM 71.4 °F 49.5 °F 46% 29.59 in 10.0 mi South 19.6 mph 28.8 mph N/A   Clear
12:15 PM 72.0 °F 49.8 °F 46% 29.56 in 10.0 mi SSE 21.9 mph 27.6 mph N/A   Clear
12:35 PM 73.8 °F 50.4 °F 44% 29.56 in 10.0 mi South 17.3 mph 24.2 mph N/A   Clear
1:15 PM 78.1 °F 47.8 °F 34% 29.54 in 10.0 mi South 17.3 mph 25.3 mph N/A   Clear
1:55 PM 78.4 °F 46.6 °F 32% 29.53 in 10.0 mi South 11.5 mph 25.3 mph N/A   Unknown
2:15 PM 79.5 °F 46.9 °F 32% 29.53 in 10.0 mi SW 15.0 mph 21.9 mph N/A   Clear
2:35 PM 79.9 °F 46.0 °F 30% 29.53 in 10.0 mi SW 12.7 mph 19.6 mph N/A   Clear
2:55 PM 79.9 °F 47.8 °F 32% 29.53 in 10.0 mi SW 10.4 mph - N/A   Clear
3:15 PM 80.8 °F 46.9 °F 30% 29.52 in 10.0 mi WSW 6.9 mph - N/A   Clear
3:35 PM 81.0 °F 46.2 °F 29% 29.52 in 10.0 mi West 11.5 mph - N/A   Clear
3:55 PM 80.4 °F 45.9 °F 30% 29.52 in 10.0 mi NW 13.8 mph 20.7 mph N/A   Clear
4:15 PM 80.1 °F 45.0 °F 29% 29.52 in 10.0 mi West 9.2 mph - N/A   Clear
4:35 PM 81.5 °F 43.7 °F 26% 29.52 in 10.0 mi West 10.4 mph - N/A   Clear
4:55 PM 81.0 °F 45.3 °F 28% 29.52 in 10.0 mi NW 9.2 mph - N/A   Clear
5:15 PM 81.1 °F 44.8 °F 28% 29.50 in 10.0 mi North 9.2 mph - N/A   Clear
5:35 PM 81.0 °F 44.2 °F 27% 29.49 in 10.0 mi NNW 15.0 mph - N/A   Clear
5:55 PM 79.9 °F 43.0 °F 27% 29.48 in 10.0 mi North 13.8 mph 25.3 mph N/A   Clear
6:15 PM 79.5 °F 42.3 °F 27% 29.48 in 10.0 mi North 18.4 mph 24.2 mph N/A   Clear
6:35 PM 79.0 °F 40.8 °F 26% 29.47 in 10.0 mi North 18.4 mph - N/A   Clear
6:55 PM 76.8 °F 37.9 °F 25% 29.47 in 10.0 mi North 18.4 mph - N/A   Clear
7:15 PM 75.7 °F 31.6 °F 20% 29.47 in 10.0 mi NNE 18.4 mph 25.3 mph N/A   Clear
7:35 PM 74.5 °F 31.6 °F 21% 29.50 in 10.0 mi North 13.8 mph 21.9 mph N/A   Clear
7:55 PM 73.8 °F 29.3 °F 19% 29.50 in 10.0 mi NNE 15.0 mph 24.2 mph N/A Thunderstorm Thunderstorm
8:15 PM 71.8 °F 32.5 °F 24% 29.52 in 10.0 mi North 10.4 mph - N/A Rain Light Rain
8:35 PM 68.4 °F 39.9 °F 35% 29.59 in 10.0 mi WNW 4.6 mph - N/A   Clear
8:55 PM 65.5 °F 38.5 °F 37% 29.60 in 10.0 mi ENE 6.9 mph - N/A Rain , Thunderstorm Light Thunderstorms and Rain
9:15 PM 67.3 °F 37.0 °F 33% 29.60 in 10.0 mi NNW 15.0 mph 23.0 mph N/A Rain Light Rain
9:35 PM 62.6 °F 44.4 °F 51% 29.63 in 10.0 mi NNW 18.4 mph - N/A   Clear
9:55 PM 62.6 °F 41.2 °F 45% 29.63 in 10.0 mi North 21.9 mph 32.2 mph N/A Rain Light Rain
10:15 PM 63.7 °F 39.4 °F 41% 29.63 in 10.0 mi North 13.8 mph - N/A Thunderstorm Clear
10:35 PM 61.2 °F 41.2 °F 48% 29.62 in 10.0 mi North 15.0 mph - N/A Rain Light Rain
10:55 PM 61.7 °F 40.1 °F 45% 29.62 in 10.0 mi North 19.6 mph 28.8 mph N/A   Scattered Clouds
11:15 PM 61.9 °F 39.7 °F 44% 29.62 in 10.0 mi North 20.7 mph - N/A   Scattered Clouds
11:35 PM 59.5 °F 46.4 °F 62% 29.62 in 10.0 mi North 18.4 mph 23.0 mph N/A   Scattered Clouds
11:55 PM 59.0 °F 46.6 °F 63% 29.67 in 10.0 mi North 18.4 mph 21.9 mph N/A   Scattered Clouds